Time;durP1;ratioP1;P1;durP2;ratioP2;P2;SDS_P1;SDS_P2;PMS_P1;PMS_P2;Temp;Humidity;BMP_temperature;BMP_pressure;BME280_temperature;BME280_humidity;BME280_pressure;Samples;Min_cycle;Max_cycle;Signal;HPM_P1;HPM_P2
2023/07/08 00:00:53;;;;;;;4.20;3.80;;;20.10;99.90;;;;;;5053595;28;20616;-88
2023/07/08 00:03:20;;;;;;;6.63;4.78;;;20.00;99.90;;;;;;5044811;28;20645;-83
2023/07/08 00:05:51;;;;;;;5.57;4.10;;;20.00;99.90;;;;;;5034298;28;20599;-88
2023/07/08 00:08:20;;;;;;;6.15;4.65;;;20.00;99.90;;;;;;5034047;28;20286;-84
2023/07/08 00:10:47;;;;;;;5.88;4.13;;;20.00;99.90;;;;;;5033753;28;20241;-86
2023/07/08 00:13:16;;;;;;;6.25;4.30;;;19.90;99.90;;;;;;5034123;28;20199;-88
2023/07/08 00:15:43;;;;;;;8.45;4.35;;;19.90;99.90;;;;;;5035414;28;20191;-86
2023/07/08 00:18:13;;;;;;;5.13;4.10;;;19.90;99.90;;;;;;5035912;28;20760;-82
2023/07/08 00:20:43;;;;;;;6.60;4.82;;;19.80;99.90;;;;;;5035311;28;20197;-86
2023/07/08 00:23:10;;;;;;;5.03;4.38;;;19.70;99.90;;;;;;5036591;28;20230;-87
2023/07/08 00:25:37;;;;;;;6.18;4.32;;;19.70;99.90;;;;;;5046277;28;20288;-81
2023/07/08 00:28:09;;;;;;;7.28;4.55;;;19.70;99.90;;;;;;5054271;28;20221;-80
2023/07/08 00:30:37;;;;;;;6.53;4.20;;;19.60;99.90;;;;;;5054723;28;20285;-82
2023/07/08 00:33:06;;;;;;;4.82;4.25;;;19.60;99.90;;;;;;5054220;28;20194;-83
2023/07/08 00:35:35;;;;;;;5.18;4.68;;;19.60;99.90;;;;;;5054028;28;20707;-87
2023/07/08 00:38:03;;;;;;;5.50;4.70;;;19.60;99.90;;;;;;5054297;28;20285;-88
2023/07/08 00:40:32;;;;;;;7.65;5.32;;;19.60;99.90;;;;;;5052824;28;20202;-87
2023/07/08 00:43:03;;;;;;;8.90;5.25;;;19.60;99.90;;;;;;5053797;28;20826;-89
2023/07/08 00:45:41;;;;;;;6.57;5.10;;;19.50;99.90;;;;;;5053563;28;20288;-82
2023/07/08 00:48:22;;;;;;;7.25;4.95;;;19.40;99.90;;;;;;5042870;28;20256;-88
2023/07/08 00:50:49;;;;;;;5.13;4.45;;;19.40;99.90;;;;;;5033748;28;20591;-85
2023/07/08 00:53:28;;;;;;;5.18;4.47;;;19.30;99.90;;;;;;5033678;28;20230;-88
2023/07/08 00:55:58;;;;;;;7.18;4.75;;;19.30;99.90;;;;;;5041651;28;20213;-84
2023/07/08 00:58:29;;;;;;;8.98;4.47;;;19.30;99.90;;;;;;5053682;28;20190;-89
2023/07/08 01:00:59;;;;;;;5.47;4.28;;;19.20;99.90;;;;;;5053525;28;20281;-89
2023/07/08 01:03:28;;;;;;;7.22;4.63;;;19.20;99.90;;;;;;5034085;28;20685;-87
2023/07/08 01:05:59;;;;;;;7.00;5.05;;;19.20;99.90;;;;;;5033879;28;20202;-82
2023/07/08 01:08:30;;;;;;;5.07;4.57;;;19.20;99.90;;;;;;5033438;28;20203;-89
2023/07/08 01:11:04;;;;;;;7.57;5.10;;;19.20;99.90;;;;;;5034606;28;20777;-87
2023/07/08 01:13:36;;;;;;;5.97;4.47;;;19.10;99.90;;;;;;5037286;28;20530;-85
2023/07/08 01:16:06;;;;;;;6.07;5.05;;;19.10;99.90;;;;;;5037132;28;20226;-84
2023/07/08 01:18:34;;;;;;;6.97;5.80;;;19.10;99.90;;;;;;5038019;28;20249;-86
2023/07/08 01:21:07;;;;;;;7.75;5.55;;;19.10;99.90;;;;;;5036583;28;20245;-87
2023/07/08 01:23:36;;;;;;;5.57;4.47;;;19.00;99.90;;;;;;5037469;28;20225;-88
2023/07/08 01:26:03;;;;;;;6.97;5.25;;;19.00;99.90;;;;;;5036354;28;20281;-82
2023/07/08 01:28:31;;;;;;;6.28;5.00;;;19.00;99.90;;;;;;5035985;28;20199;-79
2023/07/08 01:30:58;;;;;;;6.68;4.68;;;19.00;99.90;;;;;;5036034;28;20289;-82
2023/07/08 01:33:25;;;;;;;8.60;5.43;;;19.00;99.90;;;;;;5036312;28;20587;-86
2023/07/08 01:35:55;;;;;;;7.07;5.10;;;19.00;99.90;;;;;;5035819;28;20254;-86
2023/07/08 01:38:26;;;;;;;7.78;4.97;;;19.00;99.90;;;;;;5055536;28;20237;-82
2023/07/08 01:40:56;;;;;;;6.70;5.28;;;18.90;99.90;;;;;;5055645;28;20194;-80
2023/07/08 01:43:23;;;;;;;8.45;5.32;;;18.80;99.90;;;;;;5055749;28;20221;-82
2023/07/08 01:45:51;;;;;;;6.50;5.55;;;18.80;99.90;;;;;;5043331;28;20225;-83
2023/07/08 01:48:22;;;;;;;7.78;6.00;;;18.80;99.90;;;;;;5036654;28;20301;-86
2023/07/08 01:50:52;;;;;;;5.82;5.10;;;18.80;99.90;;;;;;5035603;28;20679;-80
2023/07/08 01:53:23;;;;;;;6.07;5.30;;;18.70;99.90;;;;;;5055304;28;20198;-82
2023/07/08 01:55:50;;;;;;;5.93;5.43;;;18.70;99.90;;;;;;5055540;28;20198;-85
2023/07/08 01:58:19;;;;;;;8.93;6.30;;;18.70;99.90;;;;;;5056466;28;20233;-83
2023/07/08 02:00:48;;;;;;;8.50;5.32;;;18.70;99.90;;;;;;5044153;28;20301;-88
2023/07/08 02:03:15;;;;;;;7.75;5.47;;;18.60;99.90;;;;;;5035530;28;20227;-87
2023/07/08 02:05:42;;;;;;;8.68;5.68;;;18.60;99.90;;;;;;5035931;28;20613;-88
2023/07/08 02:08:09;;;;;;;7.82;5.50;;;18.60;99.90;;;;;;5036258;28;20198;-82
2023/07/08 02:10:36;;;;;;;8.38;5.95;;;18.60;99.90;;;;;;5053469;28;20205;-85
2023/07/08 02:13:03;;;;;;;5.97;5.38;;;18.60;99.90;;;;;;5055367;28;20267;-85
2023/07/08 02:15:31;;;;;;;8.63;5.85;;;18.60;99.90;;;;;;5056484;28;20269;-88
2023/07/08 02:17:58;;;;;;;6.88;5.65;;;18.60;99.90;;;;;;5050763;28;20297;-82
2023/07/08 02:20:26;;;;;;;6.72;5.80;;;18.60;99.90;;;;;;5035841;28;20665;-85
2023/07/08 02:22:53;;;;;;;8.52;5.78;;;18.50;99.90;;;;;;5034267;28;20217;-84
2023/07/08 02:25:20;;;;;;;7.53;5.65;;;18.50;99.90;;;;;;5035632;28;20507;-84
2023/07/08 02:27:47;;;;;;;5.53;4.70;;;18.50;99.90;;;;;;5036277;28;20218;-85
2023/07/08 02:30:14;;;;;;;8.32;5.50;;;18.50;99.90;;;;;;5035385;28;20233;-86
2023/07/08 02:32:48;;;;;;;6.63;5.32;;;18.50;99.90;;;;;;5035129;28;20253;-84
2023/07/08 02:35:16;;;;;;;8.52;5.60;;;18.40;99.90;;;;;;5035146;28;20198;-80
2023/07/08 02:37:43;;;;;;;6.35;4.93;;;18.40;99.90;;;;;;5034939;28;20195;-86
2023/07/08 02:40:11;;;;;;;6.88;5.03;;;18.40;99.90;;;;;;5034812;28;20297;-79
2023/07/08 02:42:38;;;;;;;9.57;5.75;;;18.40;99.90;;;;;;5034739;28;20228;-81
2023/07/08 02:45:06;;;;;;;5.53;4.93;;;18.40;99.90;;;;;;5034049;28;20249;-81
2023/07/08 02:47:32;;;;;;;9.82;6.03;;;18.30;99.90;;;;;;5034865;28;20282;-79
2023/07/08 02:50:01;;;;;;;7.38;5.03;;;18.30;99.90;;;;;;5035212;28;20202;-79
2023/07/08 02:52:28;;;;;;;9.90;6.05;;;18.30;99.90;;;;;;5035012;28;20701;-83
2023/07/08 02:54:55;;;;;;;6.53;5.10;;;18.30;99.90;;;;;;5053805;28;20276;-89
2023/07/08 02:57:22;;;;;;;6.60;5.72;;;18.30;99.90;;;;;;5050152;28;20210;-87
2023/07/08 02:59:49;;;;;;;8.50;5.88;;;18.30;99.90;;;;;;5033989;28;20211;-85
2023/07/08 03:02:16;;;;;;;7.93;5.75;;;18.40;99.90;;;;;;5034796;28;20207;-85
2023/07/08 03:04:43;;;;;;;7.40;5.65;;;18.30;99.90;;;;;;5034262;28;20233;-84
2023/07/08 03:07:12;;;;;;;7.15;5.97;;;18.30;99.90;;;;;;5034009;28;20230;-86
2023/07/08 03:09:39;;;;;;;6.30;5.47;;;18.30;99.90;;;;;;5034512;28;20289;-83
2023/07/08 03:12:07;;;;;;;7.32;5.13;;;18.30;99.90;;;;;;5035066;28;20215;-82
2023/07/08 03:14:35;;;;;;;7.55;6.57;;;18.30;99.90;;;;;;5033972;28;20234;-79
2023/07/08 03:17:02;;;;;;;6.55;5.88;;;18.20;99.90;;;;;;5034643;28;20206;-86
2023/07/08 03:19:29;;;;;;;5.47;4.90;;;18.20;99.90;;;;;;5034944;28;20285;-81
2023/07/08 03:21:56;;;;;;;7.93;5.57;;;18.20;99.90;;;;;;5033897;28;20586;-89
2023/07/08 03:24:24;;;;;;;7.63;5.45;;;18.20;99.90;;;;;;5034016;28;20277;-88
2023/07/08 03:26:54;;;;;;;6.13;5.43;;;18.10;99.90;;;;;;5034660;28;20304;-87
2023/07/08 03:29:21;;;;;;;5.07;4.63;;;18.10;99.90;;;;;;5034176;28;20203;-83
2023/07/08 03:31:48;;;;;;;6.38;5.30;;;18.10;99.90;;;;;;5034030;28;20194;-80
2023/07/08 03:34:17;;;;;;;8.00;5.72;;;18.10;99.90;;;;;;5034452;28;20258;-82
2023/07/08 03:36:48;;;;;;;6.82;6.07;;;18.10;99.90;;;;;;5034204;28;20198;-83
2023/07/08 03:39:15;;;;;;;9.88;5.68;;;18.10;99.90;;;;;;5034082;28;20195;-85
2023/07/08 03:41:45;;;;;;;9.60;6.25;;;18.10;99.90;;;;;;5032894;28;20218;-88
2023/07/08 03:44:12;;;;;;;6.93;5.53;;;18.10;99.90;;;;;;5033595;28;20218;-84
2023/07/08 03:46:39;;;;;;;6.28;5.68;;;18.00;99.90;;;;;;5033973;28;20285;-88
2023/07/08 03:49:07;;;;;;;9.18;5.63;;;18.00;99.90;;;;;;5033213;28;20603;-86
2023/07/08 03:51:37;;;;;;;6.40;5.63;;;18.00;99.90;;;;;;5033698;28;20538;-87
2023/07/08 03:54:04;;;;;;;7.00;5.43;;;18.00;99.90;;;;;;5033768;28;20197;-82
2023/07/08 03:56:31;;;;;;;6.80;5.85;;;18.00;99.90;;;;;;5032755;28;20294;-81
2023/07/08 03:58:59;;;;;;;6.97;5.13;;;18.00;99.90;;;;;;5033595;28;20253;-81
2023/07/08 04:01:27;;;;;;;6.63;5.95;;;18.00;99.90;;;;;;5033583;28;20234;-82
2023/07/08 04:03:56;;;;;;;7.00;6.03;;;18.00;99.90;;;;;;5032703;28;20706;-84
2023/07/08 04:06:24;;;;;;;5.88;4.97;;;18.00;99.90;;;;;;5033335;28;20260;-86
2023/07/08 04:08:51;;;;;;;8.68;5.72;;;18.00;99.90;;;;;;5032776;28;20289;-87
2023/07/08 04:11:20;;;;;;;6.97;4.85;;;18.10;99.90;;;;;;5032683;28;20209;-84
2023/07/08 04:13:46;;;;;;;10.68;5.78;;;18.10;99.90;;;;;;5035413;28;20760;-85
2023/07/08 04:16:19;;;;;;;8.88;5.63;;;18.10;99.90;;;;;;5052840;28;20210;-82
2023/07/08 04:18:45;;;;;;;7.57;5.45;;;18.10;99.90;;;;;;5053075;28;20194;-83
2023/07/08 04:21:12;;;;;;;7.88;5.35;;;18.10;99.90;;;;;;5053006;28;20191;-84
2023/07/08 04:23:39;;;;;;;6.38;5.65;;;18.10;99.90;;;;;;5044328;28;20246;-84
2023/07/08 04:26:06;;;;;;;5.70;5.10;;;18.10;99.90;;;;;;5032936;28;20306;-81
2023/07/08 04:28:33;;;;;;;8.32;5.15;;;18.10;99.90;;;;;;5032996;28;20195;-81
2023/07/08 04:31:00;;;;;;;6.53;4.63;;;18.10;99.90;;;;;;5033134;28;20230;-84
2023/07/08 04:33:29;;;;;;;6.75;5.55;;;18.20;99.90;;;;;;5033737;28;20205;-82
2023/07/08 04:35:56;;;;;;;7.97;5.55;;;18.20;99.90;;;;;;5032545;28;20665;-78
2023/07/08 04:38:27;;;;;;;6.40;5.10;;;18.20;99.90;;;;;;5032399;28;20382;-81
2023/07/08 04:40:55;;;;;;;8.68;5.80;;;18.30;99.90;;;;;;5033161;28;20202;-82
2023/07/08 04:43:22;;;;;;;5.45;4.78;;;18.30;99.90;;;;;;5032585;28;20211;-82
2023/07/08 04:45:54;;;;;;;6.35;5.68;;;18.30;99.90;;;;;;5034185;28;20222;-80
2023/07/08 04:48:22;;;;;;;8.95;5.35;;;18.30;99.90;;;;;;5037702;28;20191;-82
2023/07/08 04:50:51;;;;;;;6.95;5.75;;;18.30;99.90;;;;;;5037207;28;20234;-86
2023/07/08 04:53:18;;;;;;;6.10;4.95;;;18.30;99.90;;;;;;5036901;28;20294;-79
2023/07/08 04:55:49;;;;;;;7.30;4.90;;;18.30;99.90;;;;;;5037345;28;20289;-84
2023/07/08 04:58:16;;;;;;;6.72;5.32;;;18.40;99.90;;;;;;5036992;28;20264;-79
2023/07/08 05:00:43;;;;;;;7.00;5.40;;;18.40;99.90;;;;;;5036093;28;20669;-80
2023/07/08 05:03:10;;;;;;;7.38;5.28;;;18.40;99.90;;;;;;5036649;28;20194;-79
2023/07/08 05:05:37;;;;;;;8.48;5.95;;;18.50;99.90;;;;;;5036642;28;20222;-84
2023/07/08 05:08:07;;;;;;;6.80;4.93;;;18.60;99.90;;;;;;5036949;28;20615;-86
2023/07/08 05:10:34;;;;;;;9.20;6.03;;;18.80;99.90;;;;;;5056517;28;20208;-80
2023/07/08 05:13:01;;;;;;;8.00;5.60;;;19.00;99.90;;;;;;5055240;28;20332;-84
2023/07/08 05:15:28;;;;;;;5.13;4.60;;;19.20;99.90;;;;;;5037403;28;20297;-84
2023/07/08 05:17:55;;;;;;;7.35;5.32;;;19.40;99.90;;;;;;5040349;28;20280;-85
2023/07/08 05:20:22;;;;;;;7.78;5.20;;;19.60;99.90;;;;;;5056182;28;20259;-80
2023/07/08 05:22:49;;;;;;;9.20;5.65;;;19.80;99.90;;;;;;5056342;28;20186;-82
2023/07/08 05:25:20;;;;;;;5.60;5.00;;;20.00;99.90;;;;;;5048684;28;20226;-83
2023/07/08 05:27:47;;;;;;;6.43;5.03;;;20.30;99.90;;;;;;5036086;28;20297;-83
2023/07/08 05:30:16;;;;;;;6.28;4.57;;;20.50;99.90;;;;;;5036251;28;20214;-79
2023/07/08 05:32:43;;;;;;;6.35;4.78;;;20.80;99.90;;;;;;5036317;28;20212;-85
2023/07/08 05:35:11;;;;;;;9.00;5.28;;;21.00;99.90;;;;;;5036012;28;20299;-84
2023/07/08 05:37:39;;;;;;;6.88;4.60;;;21.20;99.90;;;;;;5036633;28;20276;-81
2023/07/08 05:40:07;;;;;;;5.95;4.32;;;21.50;99.90;;;;;;5035749;28;20207;-84
2023/07/08 05:42:36;;;;;;;5.05;4.50;;;21.80;99.90;;;;;;5035708;28;20210;-82
2023/07/08 05:45:06;;;;;;;6.07;4.90;;;22.10;99.90;;;;;;5035790;28;20284;-86
2023/07/08 05:47:33;;;;;;;5.65;4.50;;;22.30;99.90;;;;;;5036302;28;20252;-84
2023/07/08 05:50:00;;;;;;;5.60;3.88;;;22.30;99.90;;;;;;5035710;28;20230;-83
2023/07/08 05:52:27;;;;;;;7.57;4.13;;;22.60;99.90;;;;;;5036149;28;20819;-82
2023/07/08 05:54:54;;;;;;;5.68;4.38;;;22.80;99.90;;;;;;5036325;28;20225;-83
2023/07/08 05:57:23;;;;;;;4.57;4.05;;;23.00;99.90;;;;;;5034628;28;20199;-86
2023/07/08 05:59:52;;;;;;;9.93;4.75;;;23.20;99.90;;;;;;5053222;28;20228;-89
2023/07/08 06:02:22;;;;;;;5.95;3.63;;;23.40;99.90;;;;;;5074468;28;20882;-84
2023/07/08 06:04:49;;;;;;;5.72;4.40;;;23.70;99.90;;;;;;5041589;28;20232;-85
2023/07/08 06:07:17;;;;;;;5.07;4.18;;;24.00;99.90;;;;;;5034485;28;20229;-79
2023/07/08 06:09:44;;;;;;;4.85;4.00;;;24.20;99.90;;;;;;5034650;28;20217;-87
2023/07/08 06:12:11;;;;;;;4.90;3.72;;;24.40;99.90;;;;;;5061165;28;20323;-86
2023/07/08 06:14:39;;;;;;;6.78;3.90;;;24.60;99.90;;;;;;5068342;28;20313;-85
2023/07/08 06:17:08;;;;;;;6.25;4.07;;;24.70;99.90;;;;;;5056603;28;20292;-86
2023/07/08 06:19:35;;;;;;;4.03;3.58;;;24.80;99.90;;;;;;5056682;28;20242;-90
2023/07/08 06:22:02;;;;;;;4.07;3.22;;;25.00;99.90;;;;;;5055817;28;20206;-86
2023/07/08 06:24:29;;;;;;;5.43;3.47;;;25.10;99.90;;;;;;5035268;28;20238;-86
2023/07/08 06:26:56;;;;;;;5.45;3.70;;;25.10;99.90;;;;;;5034400;28;20276;-84
2023/07/08 06:29:23;;;;;;;7.30;3.85;;;25.40;99.90;;;;;;5036268;28;20203;-85
2023/07/08 06:31:50;;;;;;;3.75;2.88;;;25.40;99.90;;;;;;5055852;28;20233;-85
2023/07/08 06:34:19;;;;;;;4.75;3.63;;;25.70;99.90;;;;;;5056739;28;20198;-88
2023/07/08 06:36:47;;;;;;;4.32;3.30;;;25.90;99.90;;;;;;5056090;28;20267;-86
2023/07/08 06:39:14;;;;;;;3.70;3.05;;;26.00;99.90;;;;;;5056455;28;20538;-88
2023/07/08 06:41:41;;;;;;;5.50;3.88;;;26.10;99.90;;;;;;5055947;28;20194;-87
2023/07/08 06:44:08;;;;;;;5.20;3.33;;;26.30;99.90;;;;;;5056234;28;20255;-87
2023/07/08 06:46:35;;;;;;;4.00;3.60;;;26.50;99.90;;;;;;5053831;28;20313;-80
2023/07/08 06:49:02;;;;;;;6.20;3.75;;;26.60;99.90;;;;;;5073969;28;20276;-85
2023/07/08 06:51:30;;;;;;;5.95;3.60;;;26.80;99.90;;;;;;5060507;28;20218;-87
2023/07/08 06:53:57;;;;;;;4.18;2.95;;;27.10;99.90;;;;;;5042722;28;20267;-84
2023/07/08 06:56:24;;;;;;;4.53;3.72;;;27.30;99.90;;;;;;5055215;28;20204;-84
2023/07/08 06:58:51;;;;;;;5.07;3.65;;;27.40;99.90;;;;;;5054632;28;20210;-86
2023/07/08 07:01:18;;;;;;;3.80;3.42;;;27.40;99.90;;;;;;5055494;28;20194;-82
2023/07/08 07:03:45;;;;;;;4.38;3.10;;;27.40;99.90;;;;;;5040272;28;20699;-85
2023/07/08 07:06:12;;;;;;;3.88;3.38;;;27.30;99.90;;;;;;5037476;28;20218;-89
2023/07/08 07:08:40;;;;;;;5.75;3.70;;;27.40;99.90;;;;;;5053447;28;20858;-80
2023/07/08 07:11:08;;;;;;;5.75;3.50;;;27.40;99.90;;;;;;5047509;28;20288;-84
2023/07/08 07:13:34;;;;;;;3.05;2.70;;;27.50;99.90;;;;;;5034371;28;20238;-86
2023/07/08 07:16:01;;;;;;;4.55;2.70;;;27.80;99.90;;;;;;5034802;28;20187;-88
2023/07/08 07:18:28;;;;;;;4.20;3.10;;;28.00;99.90;;;;;;5035628;28;20202;-83
2023/07/08 07:20:56;;;;;;;5.30;3.00;;;28.30;99.90;;;;;;5036850;28;20292;-84
2023/07/08 07:23:25;;;;;;;4.32;3.00;;;28.40;99.90;;;;;;5042563;28;20195;-82
2023/07/08 07:25:53;;;;;;;4.25;3.25;;;28.60;99.90;;;;;;5036018;28;20210;-84
2023/07/08 07:28:20;;;;;;;4.03;3.63;;;28.70;99.90;;;;;;5041422;28;20570;-83
2023/07/08 07:30:48;;;;;;;4.72;3.33;;;29.00;99.90;;;;;;5061773;28;20204;-85
2023/07/08 07:33:15;;;;;;;3.42;2.85;;;29.00;99.90;;;;;;5052908;28;20283;-84
2023/07/08 07:35:45;;;;;;;3.28;2.97;;;29.10;99.90;;;;;;5041978;28;20268;-82
2023/07/08 07:38:12;;;;;;;4.07;3.65;;;29.30;99.90;;;;;;5053886;28;20209;-85
2023/07/08 07:40:42;;;;;;;4.00;2.80;;;29.40;99.90;;;;;;5045728;28;20368;-85
2023/07/08 07:43:10;;;;;;;6.07;3.70;;;29.50;99.90;;;;;;5054239;28;20642;-86
2023/07/08 07:45:37;;;;;;;5.07;3.50;;;29.40;99.90;;;;;;5045747;28;20234;-82
2023/07/08 07:48:05;;;;;;;5.28;3.20;;;29.30;99.90;;;;;;5034519;28;20293;-88
2023/07/08 07:50:32;;;;;;;3.42;2.88;;;29.50;99.90;;;;;;5034642;28;20282;-86
2023/07/08 07:52:59;;;;;;;4.53;3.80;;;29.70;99.90;;;;;;5034580;28;20199;-87
2023/07/08 07:55:26;;;;;;;3.67;3.38;;;29.80;99.90;;;;;;5033755;28;20210;-85
2023/07/08 07:57:53;;;;;;;4.70;3.58;;;29.80;99.90;;;;;;5034155;28;20285;-86
2023/07/08 08:00:22;;;;;;;4.20;2.80;;;29.60;99.90;;;;;;5034096;28;20202;-86
2023/07/08 08:02:49;;;;;;;4.07;3.38;;;29.50;99.90;;;;;;5032778;28;20214;-87
2023/07/08 08:05:16;;;;;;;4.88;3.13;;;29.50;99.90;;;;;;5033850;28;20226;-83
2023/07/08 08:07:43;;;;;;;5.20;3.08;;;29.50;99.90;;;;;;5034087;28;20199;-88
2023/07/08 08:10:10;;;;;;;4.20;3.35;;;29.80;99.90;;;;;;5048369;28;20589;-86
2023/07/08 08:12:37;;;;;;;5.18;3.45;;;29.90;99.90;;;;;;5053498;28;20198;-82
2023/07/08 08:15:05;;;;;;;4.32;3.35;;;30.10;99.90;;;;;;5044896;28;20234;-81
2023/07/08 08:17:33;;;;;;;4.15;3.25;;;30.20;99.90;;;;;;5032974;28;20201;-82
2023/07/08 08:20:00;;;;;;;3.95;3.55;;;30.10;99.90;;;;;;5040720;28;20203;-83
2023/07/08 08:22:27;;;;;;;3.53;3.20;;;30.50;99.90;;;;;;5063387;28;20205;-86
2023/07/08 08:24:54;;;;;;;4.03;3.20;;;30.40;99.90;;;;;;5063331;28;20220;-87
2023/07/08 08:27:21;;;;;;;5.47;3.58;;;30.80;99.90;;;;;;5036796;28;20228;-82
2023/07/08 08:29:48;;;;;;;4.50;3.38;;;30.80;99.90;;;;;;5061479;28;20193;-87
2023/07/08 08:32:15;;;;;;;3.88;3.35;;;31.00;99.90;;;;;;5073463;28;20252;-84
2023/07/08 08:34:45;;;;;;;4.90;3.15;;;31.20;99.90;;;;;;5073602;28;20221;-89
2023/07/08 08:37:12;;;;;;;4.63;2.95;;;31.30;99.90;;;;;;5039216;28;20257;-86
2023/07/08 08:39:39;;;;;;;4.15;3.35;;;31.50;99.90;;;;;;5033030;28;20194;-86
2023/07/08 08:42:17;;;;;;;6.65;3.40;;;31.40;99.90;;;;;;5049273;28;20585;-84
2023/07/08 08:44:45;;;;;;;6.25;3.72;;;31.50;99.90;;;;;;5052167;28;20189;-82
2023/07/08 08:47:26;;;;;;;6.03;3.53;;;31.20;99.90;;;;;;5049224;28;20313;-86
2023/07/08 08:50:01;;;;;;;4.22;3.63;;;30.90;99.90;;;;;;5052557;28;20197;-83
2023/07/08 08:52:28;;;;;;;3.85;3.15;;;30.60;99.90;;;;;;5073076;28;20631;-86
2023/07/08 08:54:55;;;;;;;3.85;3.45;;;30.70;99.90;;;;;;5062474;28;20590;-84
2023/07/08 08:57:39;;;;;;;3.42;3.10;;;31.00;99.90;;;;;;5054244;28;20198;-83
2023/07/08 09:00:10;;;;;;;5.85;3.78;;;31.30;99.90;;;;;;5053517;28;20274;-85
2023/07/08 09:02:43;;;;;;;4.43;3.30;;;31.50;99.90;;;;;;5052697;28;20190;-83
2023/07/08 09:05:12;;;;;;;4.00;3.35;;;31.50;99.90;;;;;;5034308;28;20288;-84
2023/07/08 09:07:46;;;;;;;4.07;3.47;;;31.70;99.90;;;;;;5034073;28;20203;-86
2023/07/08 09:10:25;;;;;;;4.75;3.10;;;31.80;99.90;;;;;;5034743;28;20279;-87
2023/07/08 09:12:54;;;;;;;5.28;3.90;;;31.60;99.90;;;;;;5031946;28;20241;-83
2023/07/08 09:15:21;;;;;;;3.72;3.22;;;31.50;99.90;;;;;;5032946;28;20249;-83
2023/07/08 09:17:50;;;;;;;5.75;3.25;;;31.60;99.90;;;;;;5032191;28;20206;-83
2023/07/08 09:20:23;;;;;;;5.55;3.58;;;31.70;99.90;;;;;;5032619;28;20234;-86
2023/07/08 09:22:56;;;;;;;4.63;3.83;;;31.90;99.90;;;;;;5031953;28;20360;-86
2023/07/08 09:25:29;;;;;;;5.85;4.30;;;31.80;99.90;;;;;;5031835;28;20300;-82
2023/07/08 09:27:57;;;;;;;4.97;4.10;;;31.80;99.90;;;;;;5031361;28;20222;-87
2023/07/08 09:30:26;;;;;;;3.95;3.55;;;31.60;99.90;;;;;;5032138;28;20203;-87
2023/07/08 09:32:53;;;;;;;5.57;3.35;;;31.80;99.90;;;;;;5034166;28;20599;-87
2023/07/08 09:35:25;;;;;;;4.15;3.80;;;31.80;99.90;;;;;;5034394;28;20198;-86
2023/07/08 09:37:53;;;;;;;5.03;4.35;;;32.10;99.90;;;;;;5035281;28;20198;-83
2023/07/08 09:40:22;;;;;;;4.55;3.60;;;32.10;99.90;;;;;;5034464;28;21067;-83
2023/07/08 09:42:53;;;;;;;4.30;3.85;;;32.20;99.90;;;;;;5035386;28;20227;-84
2023/07/08 09:45:23;;;;;;;5.88;3.70;;;32.20;99.90;;;;;;5035307;28;20187;-83
2023/07/08 09:47:54;;;;;;;4.97;3.65;;;32.30;99.90;;;;;;5034423;28;20477;-85
2023/07/08 09:50:25;;;;;;;5.45;4.13;;;32.20;99.90;;;;;;5035067;28;20242;-84
2023/07/08 09:52:54;;;;;;;4.20;3.67;;;32.20;99.90;;;;;;5035136;28;20206;-84
2023/07/08 09:55:21;;;;;;;5.93;4.30;;;32.20;99.90;;;;;;5034479;28;20210;-84
2023/07/08 09:57:52;;;;;;;9.35;5.75;;;32.50;99.90;;;;;;5035008;28;20232;-82
2023/07/08 10:00:27;;;;;;;7.63;4.43;;;32.30;99.90;;;;;;5035092;28;20264;-82
2023/07/08 10:02:57;;;;;;;5.57;3.80;;;32.20;99.90;;;;;;5042043;28;20205;-83
2023/07/08 10:05:32;;;;;;;4.68;3.72;;;32.30;99.90;;;;;;5055629;28;20222;-88
2023/07/08 10:08:14;;;;;;;4.45;3.58;;;32.50;99.90;;;;;;5055394;28;20409;-82
2023/07/08 10:10:42;;;;;;;5.55;4.20;;;32.60;99.90;;;;;;5051221;28;20199;-82
2023/07/08 10:13:19;;;;;;;7.22;4.80;;;32.30;99.90;;;;;;5035208;28;20290;-84
2023/07/08 10:15:51;;;;;;;4.68;4.10;;;32.20;99.90;;;;;;5035352;28;20221;-80
2023/07/08 10:18:25;;;;;;;5.20;4.10;;;32.00;99.90;;;;;;5034883;28;20603;-83
2023/07/08 10:21:09;;;;;;;4.90;4.40;;;32.00;99.90;;;;;;5034708;28;20230;-85
2023/07/08 10:23:47;;;;;;;6.35;4.47;;;32.20;99.90;;;;;;5041602;28;20703;-83
2023/07/08 10:26:22;;;;;;;6.45;5.18;;;32.40;99.90;;;;;;5054165;28;20229;-85
2023/07/08 10:28:57;;;;;;;5.20;4.35;;;32.30;99.90;;;;;;5054988;28;20277;-85
2023/07/08 10:31:32;;;;;;;7.75;4.43;;;32.10;99.90;;;;;;5043500;28;20198;-83
2023/07/08 10:34:25;;;;;;;4.15;3.67;;;32.30;99.90;;;;;;5034853;28;20202;-81
2023/07/08 10:37:03;;;;;;;4.53;4.13;;;32.60;99.90;;;;;;5031682;28;20213;-81
2023/07/08 10:39:53;;;;;;;4.40;3.90;;;32.50;99.90;;;;;;5034326;28;20612;-82
2023/07/08 10:42:33;;;;;;;5.43;4.28;;;32.60;99.90;;;;;;5034478;28;20554;-80
2023/07/08 10:45:08;;;;;;;5.32;4.43;;;32.40;99.90;;;;;;5032195;28;20635;-80
2023/07/08 10:47:54;;;;;;;4.70;4.03;;;32.10;99.90;;;;;;5035154;28;20206;-86
2023/07/08 10:50:40;;;;;;;6.65;4.85;;;32.10;99.90;;;;;;5035071;28;20225;-85
2023/07/08 10:53:36;;;;;;;6.38;3.92;;;32.30;99.90;;;;;;5035254;28;20205;-82
2023/07/08 10:56:08;;;;;;;4.88;4.35;;;32.70;99.90;;;;;;5034973;28;20205;-82
2023/07/08 10:58:58;;;;;;;4.82;3.80;;;32.60;99.90;;;;;;5035016;28;20194;-87
2023/07/08 11:01:36;;;;;;;4.45;4.05;;;32.90;99.90;;;;;;5034891;28;20248;-84
2023/07/08 11:04:34;;;;;;;5.68;4.10;;;33.00;99.90;;;;;;5035326;28;20222;-86
2023/07/08 11:07:10;;;;;;;8.90;4.57;;;33.20;99.90;;;;;;5049384;28;20292;-83
2023/07/08 11:09:46;;;;;;;4.97;4.55;;;32.90;99.90;;;;;;5061212;22;20240;-85
2023/07/08 11:12:23;;;;;;;6.63;4.40;;;33.10;99.90;;;;;;5034484;28;20575;-87
2023/07/08 11:14:57;;;;;;;4.35;3.92;;;33.10;99.90;;;;;;5034750;28;20598;-85
2023/07/08 11:17:29;;;;;;;5.07;4.68;;;33.10;99.90;;;;;;5052851;28;20353;-86
2023/07/08 11:20:02;;;;;;;5.05;4.15;;;33.20;99.90;;;;;;5053305;28;20194;-84
2023/07/08 11:22:33;;;;;;;6.55;4.97;;;33.40;99.90;;;;;;5039020;28;20222;-85
2023/07/08 11:25:04;;;;;;;4.57;3.97;;;33.40;99.90;;;;;;5033980;28;20230;-88
2023/07/08 11:27:35;;;;;;;6.20;4.47;;;33.10;99.90;;;;;;5040791;28;20322;-85
2023/07/08 11:30:07;;;;;;;7.05;4.90;;;33.10;99.90;;;;;;5033632;28;20194;-81
2023/07/08 11:32:36;;;;;;;6.28;4.97;;;33.20;99.90;;;;;;5032900;28;20203;-84
2023/07/08 11:35:07;;;;;;;7.80;4.88;;;33.20;99.90;;;;;;5033048;28;20667;-84
2023/07/08 11:37:35;;;;;;;6.30;4.72;;;33.10;99.90;;;;;;5033042;28;20211;-82
2023/07/08 11:40:10;;;;;;;6.13;4.43;;;33.10;99.90;;;;;;5032175;28;20226;-81
2023/07/08 11:42:40;;;;;;;4.63;4.13;;;33.50;99.90;;;;;;5032917;28;20579;-84
2023/07/08 11:45:25;;;;;;;6.43;4.78;;;33.50;99.90;;;;;;5032553;28;20722;-82
2023/07/08 11:47:52;;;;;;;4.68;4.28;;;33.50;99.90;;;;;;5032192;28;20245;-81
2023/07/08 11:50:24;;;;;;;5.97;5.05;;;33.70;99.90;;;;;;5033252;28;20199;-80
2023/07/08 11:52:59;;;;;;;6.50;4.57;;;33.50;99.90;;;;;;5032656;28;20217;-81
2023/07/08 11:55:35;;;;;;;5.05;4.60;;;33.40;99.90;;;;;;5031944;28;20198;-79
2023/07/08 11:58:02;;;;;;;5.03;4.53;;;33.50;99.90;;;;;;5032051;28;20281;-79
2023/07/08 12:00:34;;;;;;;6.18;5.15;;;33.30;99.90;;;;;;5032196;28;20198;-81
2023/07/08 12:03:18;;;;;;;6.63;4.43;;;33.30;99.90;;;;;;5032237;28;20190;-81
2023/07/08 12:05:46;;;;;;;4.47;4.07;;;33.40;99.90;;;;;;5032414;28;20206;-82
2023/07/08 12:08:15;;;;;;;5.80;4.75;;;33.50;99.90;;;;;;5032269;28;20270;-81
2023/07/08 12:10:49;;;;;;;5.65;4.93;;;33.80;99.90;;;;;;5032569;28;20230;-82
2023/07/08 12:13:19;;;;;;;4.78;4.22;;;33.80;99.90;;;;;;5032773;28;20197;-81
2023/07/08 12:15:46;;;;;;;9.98;5.07;;;34.00;99.90;;;;;;5031637;28;20203;-81
2023/07/08 12:18:17;;;;;;;4.70;4.30;;;33.80;99.90;;;;;;5032400;28;20229;-80
2023/07/08 12:20:47;;;;;;;5.45;4.13;;;33.80;99.90;;;;;;5044302;28;20234;-81
2023/07/08 12:23:16;;;;;;;6.55;4.80;;;33.80;99.90;;;;;;5050948;28;20189;-79
2023/07/08 12:25:44;;;;;;;5.43;4.90;;;34.00;99.90;;;;;;5051962;28;20234;-81
2023/07/08 12:28:13;;;;;;;5.78;4.68;;;34.10;99.90;;;;;;5049381;28;20300;-84
2023/07/08 12:30:41;;;;;;;6.68;4.35;;;34.10;99.90;;;;;;5051114;28;20234;-80
2023/07/08 12:33:14;;;;;;;7.13;5.18;;;34.00;99.90;;;;;;5043149;28;20208;-78
2023/07/08 12:35:43;;;;;;;4.97;4.47;;;34.10;99.90;;;;;;5051330;28;20216;-77
2023/07/08 12:38:20;;;;;;;6.80;4.90;;;34.00;99.90;;;;;;5047239;28;20190;-81
2023/07/08 12:40:48;;;;;;;5.85;5.25;;;34.10;99.90;;;;;;5051576;28;20611;-78
2023/07/08 12:43:16;;;;;;;5.78;5.10;;;34.00;99.90;;;;;;5042113;28;20209;-80
2023/07/08 12:45:44;;;;;;;6.53;5.53;;;34.00;99.90;;;;;;5047784;28;20228;-80
2023/07/08 12:48:11;;;;;;;6.38;4.25;;;34.20;99.90;;;;;;5051138;28;20638;-79
2023/07/08 12:50:38;;;;;;;6.43;5.07;;;34.30;99.90;;;;;;5047140;28;20222;-77
2023/07/08 12:53:09;;;;;;;8.75;5.60;;;34.20;99.90;;;;;;5051568;28;20289;-80
2023/07/08 12:55:38;;;;;;;9.63;6.00;;;34.10;99.90;;;;;;5048582;28;20217;-80
2023/07/08 12:58:10;;;;;;;6.13;5.10;;;34.10;99.90;;;;;;5050955;28;20263;-81
2023/07/08 13:00:41;;;;;;;5.22;4.70;;;34.20;99.90;;;;;;5050066;28;20202;-81